OKPRW LKVO-LKVO

Flight info

Callsign OKPRW
Flight time N/A
Altitude 3500
Route LKPRN LKPRE
Aircraft C172/L-SDFGRY/S

Departure

Time 2026-04-29 18:52
Airport Vodochody Airport (LKVO)

Arrival

Time N/A
Airport Vodochody Airport (LKVO)
Time Latitude Longitude Altitude Speed Heading
2026-04-29 18:36 50.21991 14.39098 901 ft 0 kts 342°
2026-04-29 18:49 50.21994 14.39096 901 ft 1 kts 346°
2026-04-29 18:49 50.21998 14.39055 900 ft 8 kts 236°
2026-04-29 18:50 50.21969 14.38966 899 ft 10 kts 252°
2026-04-29 18:50 50.21943 14.38836 897 ft 14 kts 252°
2026-04-29 18:50 50.21886 14.38747 897 ft 10 kts 194°
2026-04-29 18:50 50.21814 14.38728 897 ft 9 kts 155°
2026-04-29 18:51 50.21801 14.38774 898 ft 0 kts 100°
2026-04-29 18:51 50.21791 14.38832 900 ft 15 kts 103°
2026-04-29 18:51 50.21723 14.39238 907 ft 58 kts 103°
2026-04-29 18:51 50.21586 14.39908 1038 ft 66 kts 105°
2026-04-29 18:52 50.21496 14.40593 1212 ft 65 kts 98°
2026-04-29 18:52 50.21382 14.41310 1347 ft 70 kts 104°
2026-04-29 18:52 50.21307 14.42052 1498 ft 67 kts 65°
2026-04-29 18:52 50.21745 14.42253 1630 ft 80 kts 332°
2026-04-29 18:53 50.22101 14.41503 1742 ft 90 kts 300°
2026-04-29 18:53 50.22375 14.40581 1845 ft 97 kts 296°
2026-04-29 18:53 50.22609 14.39564 1936 ft 102 kts 292°
2026-04-29 18:53 50.22783 14.38457 2062 ft 103 kts 282°
2026-04-29 18:54 50.22903 14.37342 2133 ft 103 kts 280°
2026-04-29 18:54 50.23010 14.36236 2179 ft 103 kts 292°
2026-04-29 18:54 50.23330 14.35225 2173 ft 110 kts 307°
2026-04-29 18:54 50.23772 14.34241 2159 ft 114 kts 311°
2026-04-29 18:55 50.24263 14.33255 2139 ft 115 kts 313°
2026-04-29 18:55 50.24782 14.32298 2127 ft 116 kts 317°
2026-04-29 18:55 50.25326 14.31418 2135 ft 114 kts 323°
2026-04-29 18:55 50.25903 14.30494 2048 ft 121 kts 315°
2026-04-29 18:56 50.26454 14.29496 2057 ft 117 kts 316°
2026-04-29 18:56 50.27005 14.28541 2009 ft 119 kts 313°
2026-04-29 18:56 50.27418 14.27469 2068 ft 112 kts 297°
2026-04-29 18:56 50.27497 14.26211 2034 ft 117 kts 257°
2026-04-29 18:57 50.27148 14.25108 2063 ft 114 kts 242°
2026-04-29 18:57 50.26769 14.24001 2059 ft 115 kts 236°
2026-04-29 18:57 50.26146 14.23231 2057 ft 113 kts 208°
2026-04-29 18:57 50.25475 14.22587 2055 ft 114 kts 208°
2026-04-29 18:58 50.24791 14.21920 2061 ft 113 kts 207°
2026-04-29 18:58 50.24085 14.21353 2049 ft 114 kts 203°
2026-04-29 18:58 50.23367 14.20801 2034 ft 115 kts 199°
2026-04-29 18:58 50.22626 14.20336 2010 ft 115 kts 192°
2026-04-29 18:59 50.21858 14.19950 1989 ft 115 kts 194°
2026-04-29 18:59 50.21084 14.19565 1961 ft 116 kts 193°
2026-04-29 18:59 50.20330 14.19188 1939 ft 110 kts 194°
2026-04-29 18:59 50.19597 14.18868 1902 ft 105 kts 182°
2026-04-29 19:00 50.18901 14.19035 1851 ft 100 kts 153°
2026-04-29 19:00 50.18282 14.19459 1871 ft 98 kts 150°
2026-04-29 19:00 50.17658 14.19935 1893 ft 100 kts 146°
2026-04-29 19:00 50.17044 14.20448 1896 ft 100 kts 146°
2026-04-29 19:01 50.16439 14.20968 1931 ft 97 kts 144°
2026-04-29 19:01 50.15849 14.21530 1934 ft 98 kts 142°
2026-04-29 19:01 50.15268 14.22117 1938 ft 100 kts 139°
2026-04-29 19:01 50.14711 14.22761 1967 ft 97 kts 136°
2026-04-29 19:02 50.14198 14.23433 2010 ft 94 kts 133°
2026-04-29 19:02 50.13879 14.23883 2033 ft 93 kts 131°
2026-04-29 19:02 50.13540 14.25001 2074 ft 86 kts 74°
2026-04-29 19:02 50.13943 14.25646 2152 ft 82 kts 30°
2026-04-29 19:03 50.14524 14.25767 2193 ft 93 kts 352°
2026-04-29 19:03 50.15104 14.25301 2252 ft 98 kts 332°
2026-04-29 19:03 50.15640 14.24610 2310 ft 101 kts 317°
2026-04-29 19:03 50.15922 14.23549 2329 ft 112 kts 276°
2026-04-29 19:04 50.15673 14.22403 2336 ft 116 kts 223°
2026-04-29 19:04 50.14946 14.22096 2323 ft 108 kts 155°
2026-04-29 19:04 50.14403 14.22768 2359 ft 97 kts 124°
2026-04-29 19:04 50.13951 14.23560 2404 ft 95 kts 122°
2026-04-29 19:05 50.13726 14.24458 2368 ft 93 kts 81°
2026-04-29 19:05 50.14084 14.25275 2316 ft 96 kts 32°
2026-04-29 19:05 50.14742 14.25314 2325 ft 102 kts 344°
2026-04-29 19:05 50.15199 14.24437 2271 ft 119 kts 281°
2026-04-29 19:06 50.14843 14.23276 2123 ft 126 kts 202°
2026-04-29 19:06 50.14113 14.23581 2074 ft 113 kts 127°
2026-04-29 19:06 50.12919 14.25107 2178 ft 113 kts 135°
2026-04-29 19:07 50.12311 14.25915 2147 ft 114 kts 133°
2026-04-29 19:07 50.12117 14.26177 2164 ft 114 kts 134°
2026-04-29 19:07 50.11070 14.27546 2088 ft 121 kts 134°
2026-04-29 19:07 50.10403 14.28388 1974 ft 126 kts 136°
2026-04-29 19:08 50.09692 14.29260 1870 ft 127 kts 135°
2026-04-29 19:08 50.09029 14.30170 1793 ft 128 kts 135°
2026-04-29 19:08 50.08309 14.30823 1832 ft 119 kts 176°
2026-04-29 19:08 50.07692 14.30123 1919 ft 112 kts 257°
2026-04-29 19:09 50.08088 14.29180 1726 ft 118 kts 339°
2026-04-29 19:09 50.08762 14.28624 1520 ft 102 kts 325°
2026-04-29 19:09 50.09225 14.27792 1283 ft 98 kts 312°
2026-04-29 19:09 50.09604 14.27004 1196 ft 79 kts 314°
2026-04-29 19:10 50.09904 14.26378 1171 ft 63 kts 307°
2026-04-29 19:10 50.10189 14.25767 1227 ft 75 kts 302°
2026-04-29 19:10 50.10070 14.25040 1379 ft 74 kts 213°
2026-04-29 19:10 50.09616 14.24604 1552 ft 75 kts 195°
2026-04-29 19:11 50.09098 14.24420 1691 ft 78 kts 167°
2026-04-29 19:11 50.08572 14.24811 1724 ft 91 kts 144°
2026-04-29 19:11 50.08012 14.25350 1820 ft 96 kts 137°
2026-04-29 19:11 50.07449 14.25964 1957 ft 99 kts 144°
2026-04-29 19:12 50.06854 14.26461 2083 ft 95 kts 143°
2026-04-29 19:12 50.06265 14.26929 2182 ft 94 kts 147°
2026-04-29 19:12 50.05668 14.27322 2275 ft 95 kts 149°
2026-04-29 19:12 50.05463 14.27459 2299 ft 96 kts 146°
2026-04-29 19:13 50.04403 14.28173 2386 ft 101 kts 149°
2026-04-29 19:13 50.03717 14.28583 2401 ft 106 kts 149°
2026-04-29 19:13 50.03059 14.29079 2455 ft 104 kts 140°
2026-04-29 19:13 50.02417 14.29713 2367 ft 112 kts 139°
2026-04-29 19:14 50.01751 14.30414 2279 ft 115 kts 138°
2026-04-29 19:14 50.01103 14.31165 2177 ft 117 kts 136°